WetterOnline ( https://www.wetteronline.de )

Wetter aktuell Titisee-Neustadt

Aktuelles Wetter: Feldberg/Schwarzwald (1493m)

6-stündlich | Neueste Meldungen
Ortszeit Temperatur Wetter
Do, 27.01. 13:00 1.2° C wolkig
Do, 27.01. 7:00 2.3° C bedeckt
Do, 27.01. 1:00 2.3° C leicht bewölkt
Mi, 26.01. 19:00 0.6° C bewölkt
Mi, 26.01. 13:00 2.1° C wolkenlos
Mi, 26.01. 7:00 1.1° C wolkenlos
Mi, 26.01. 1:00 2.2° C wolkenlos
Di, 25.01. 19:00 3.5° C wolkenlos
Ortszeit Temperatur Wetter
Do, 27.01. 16:00 -0.1° C leicht bewölkt
Do, 27.01. 15:50 -0.1° C leicht bewölkt
Do, 27.01. 15:40 0.1° C wolkig
Do, 27.01. 15:30 -0.1° C leicht bewölkt
Do, 27.01. 15:20 -0.1° C leicht bewölkt
Do, 27.01. 15:10 0.0° C leicht bewölkt
Do, 27.01. 15:00 -0.6° C fast wolkenlos
Do, 27.01. 14:30 0.2° C wolkig
Do, 27.01. 14:00 0.8° C leicht bewölkt
Do, 27.01. 13:30 1.1° C wolkig
Do, 27.01. 13:00 1.2° C wolkig
Ortszeit Relative Feuchte Sichtweite
Do, 27.01. 13:00 35% 65 km
Do, 27.01. 7:00 23% >70 km
Do, 27.01. 1:00 23% >70 km
Mi, 26.01. 19:00 40% >70 km
Mi, 26.01. 13:00 37% 60 km
Mi, 26.01. 7:00 35% >70 km
Mi, 26.01. 1:00 20% >70 km
Di, 25.01. 19:00 37% >70 km
Ortszeit Relative Feuchte Sichtweite
Do, 27.01. 16:00 37% 65 km
Do, 27.01. 15:50 37% -
Do, 27.01. 15:40 36% -
Do, 27.01. 15:30 38% >70 km
Do, 27.01. 15:20 38% -
Do, 27.01. 15:10 37% -
Do, 27.01. 15:00 43% >70 km
Do, 27.01. 14:30 38% >70 km
Do, 27.01. 14:00 36% >70 km
Do, 27.01. 13:30 35% 60 km
Do, 27.01. 13:00 35% 65 km
Ortszeit Niederschlagsmenge Niederschlagsart
Do, 27.01. 13:00 0.0 l/m2 in 6 Std. -
Do, 27.01. 7:00 0.0 l/m2 in 12 Std. -
Do, 27.01. 1:00 0.0 l/m2 in 6 Std. -
Mi, 26.01. 19:00 0.0 l/m2 in 12 Std. -
Mi, 26.01. 13:00 0.0 l/m2 in 6 Std. -
Mi, 26.01. 7:00 0.0 l/m2 in 12 Std. -
Mi, 26.01. 1:00 0.0 l/m2 in 6 Std. -
Di, 25.01. 19:00 0.0 l/m2 in 12 Std. -
Ortszeit Niederschlagsmenge Niederschlagsart
Do, 27.01. 16:00 0.0 l/m2 in 1 Std. -
Do, 27.01. 15:50 keine Meldung -
Do, 27.01. 15:40 keine Meldung -
Do, 27.01. 15:30 0.0 l/m2 in 1 Std. -
Do, 27.01. 15:20 keine Meldung -
Do, 27.01. 15:10 keine Meldung -
Do, 27.01. 15:00 0.0 l/m2 in 1 Std. -
Do, 27.01. 14:30 0.0 l/m2 in 1 Std. -
Do, 27.01. 14:00 0.0 l/m2 in 1 Std. -
Do, 27.01. 13:30 0.0 l/m2 in 1 Std. -
Do, 27.01. 13:00 0.0 l/m2 in 1 Std. -
Ortszeit Stärke Spitze Richtung
km/h Bft. km/h Grad Sektor
Do, 27.01. 13:00 47 6 61 260° W
Do, 27.01. 7:00 28 4 39 260° W
Do, 27.01. 1:00 28 4 35 240° SW
Mi, 26.01. 19:00 22 4 29 260° W
Mi, 26.01. 13:00 13 3 28 240° SW
Mi, 26.01. 7:00 24 4 33 260° W
Mi, 26.01. 1:00 11 2 36 220° SW
Di, 25.01. 19:00 25 4 29 240° SW
Ortszeit Stärke Spitze Richtung
km/h Bft. km/h Grad Sektor
Do, 27.01. 16:00 37 5 54 250° W
Do, 27.01. 15:50 37 5 - 250° W
Do, 27.01. 15:40 43 6 - 250° W
Do, 27.01. 15:30 41 6 54 250° W
Do, 27.01. 15:20 41 6 - 250° W
Do, 27.01. 15:10 43 6 - 250° W
Do, 27.01. 15:00 36 5 54 250° W
Do, 27.01. 14:30 43 6 54 260° W
Do, 27.01. 14:00 47 6 65 260° W
Do, 27.01. 13:30 44 6 63 260° W
Do, 27.01. 13:00 47 6 61 260° W
Ortszeit Untergrenze Bedeckung Gattung
total tief tief mittel hoch
Do, 27.01. 13:00 7200 m 8/8 0/8 - - -
Do, 27.01. 7:00 6900 m 8/8 8/8 - - -
Do, 27.01. 1:00 9000 m 4/8 0/8 - - -
Mi, 26.01. 19:00 6900 m 8/8 6/8 - - -
Mi, 26.01. 13:00 - 0/8 0/8 - - -
Mi, 26.01. 7:00 - 0/8 0/8 - - -
Mi, 26.01. 1:00 - 0/8 0/8 - - -
Di, 25.01. 19:00 - 0/8 0/8 - - -
Ortszeit Bedeckungsgrad in Achtel und Wolkenuntergrenze
Do, 27.01. 16:00 6(9000m) 6(9000m)
Do, 27.01. 15:50 6(9000m) 6(9000m)
Do, 27.01. 15:40 6
Do, 27.01. 15:30 5(9000m) 5(9000m)
Do, 27.01. 15:20 5(9000m) 5(9000m)
Do, 27.01. 15:10 4
Do, 27.01. 15:00 1(8700m)
Do, 27.01. 14:30 7(8700m)
Do, 27.01. 14:00 1(7200m) 8(8400m) 8(9000m)
Do, 27.01. 13:30 2(7500m) 8(8400m)
Do, 27.01. 13:00 8(7200m)
Ortszeit Stationsdruck (hPa) Tendenz (hPa in 3 Std.)
Do, 27.01. 13:00 856 - 1,0
Do, 27.01. 7:00 857 - 0,2
Do, 27.01. 1:00 858 - 0,8
Mi, 26.01. 19:00 858 + 0,1
Mi, 26.01. 13:00 859 - 0,2
Mi, 26.01. 7:00 858 - 0,4
Mi, 26.01. 1:00 859 - 0,6
Di, 25.01. 19:00 860 - 0,3
Ortszeit Stationsdruck (hPa) Tendenz (hPa in 3 Std.)
Do, 27.01. 16:00 856 - 0,3
Do, 27.01. 15:50 856 keine Meldung
Do, 27.01. 15:40 856 keine Meldung
Do, 27.01. 15:30 856 - 0,8
Do, 27.01. 15:20 856 keine Meldung
Do, 27.01. 15:10 856 keine Meldung
Do, 27.01. 15:00 856 - 1,1
Do, 27.01. 14:30 856 - 1,0
Do, 27.01. 14:00 856 - 0,8
Do, 27.01. 13:30 856 - 0,8
Do, 27.01. 13:00 856 - 1,0
Ortszeit Schneehöhe (cm)
Do, 27.01. 13:00 63
Do, 27.01. 7:00 63
Do, 27.01. 1:00 63
Mi, 26.01. 19:00 63
Mi, 26.01. 13:00 63
Mi, 26.01. 7:00 63
Mi, 26.01. 1:00 63
Di, 25.01. 19:00 63
Ortszeit Schneehöhe (cm)
Do, 27.01. 16:00 63
Do, 27.01. 15:50 63
Do, 27.01. 15:40 63
Do, 27.01. 15:30 63
Do, 27.01. 15:20 63
Do, 27.01. 15:10 63
Do, 27.01. 15:00 63
Do, 27.01. 14:30 63
Do, 27.01. 14:00 63
Do, 27.01. 13:30 63
Do, 27.01. 13:00 63
Link zu dieser Seite / Seite empfehlen

Das Wetter in ...